Time;durP1;ratioP1;P1;durP2;ratioP2;P2;SDS_P1;SDS_P2;PMS_P1;PMS_P2;Temp;Humidity;BMP_temperature;BMP_pressure;BME280_temperature;BME280_humidity;BME280_pressure;Samples;Min_cycle;Max_cycle;Signal;HPM_P1;HPM_P2
2022/07/16 00:02:15;;;;;;;5.15;3.60;;;;;;;24.07;40.37;102433.59;6185574;23;20027;-77
2022/07/16 00:04:40;;;;;;;5.30;3.33;;;;;;;24.07;40.41;102425.22;6185663;23;20033;-79
2022/07/16 00:07:06;;;;;;;7.35;3.50;;;;;;;24.04;39.99;102418.38;6185604;23;20065;-76
2022/07/16 00:09:32;;;;;;;3.70;2.75;;;;;;;23.96;40.13;102408.25;6185755;23;20005;-76
2022/07/16 00:11:57;;;;;;;3.80;2.63;;;;;;;23.88;39.94;102409.25;6185163;23;20016;-79
2022/07/16 00:14:23;;;;;;;5.03;3.60;;;;;;;23.79;39.89;102417.00;6185667;23;19997;-79
2022/07/16 00:16:48;;;;;;;5.20;3.17;;;;;;;23.71;40.14;102420.78;6159107;23;20001;-77
2022/07/16 00:19:19;;;;;;;6.63;3.55;;;;;;;23.57;39.97;102412.84;6185641;23;20057;-76
2022/07/16 00:21:46;;;;;;;9.52;4.28;;;;;;;23.52;39.98;102411.16;6185289;23;20005;-77
2022/07/16 00:24:12;;;;;;;6.90;3.90;;;;;;;23.56;40.10;102411.22;6185689;23;20012;-77
2022/07/16 00:26:38;;;;;;;6.70;4.03;;;;;;;23.45;40.90;102413.78;6159174;23;20013;-76
2022/07/16 00:29:04;;;;;;;6.50;3.88;;;;;;;23.41;40.57;102415.66;6185663;23;20405;-80
2022/07/16 00:31:30;;;;;;;5.60;3.28;;;;;;;23.37;40.62;102413.97;6185344;23;20032;-78
2022/07/16 00:33:56;;;;;;;7.25;4.38;;;;;;;23.28;41.09;102411.34;6185356;23;20016;-76
2022/07/16 00:36:21;;;;;;;6.72;3.65;;;;;;;23.25;40.89;102414.84;6185528;23;20005;-79
2022/07/16 00:38:47;;;;;;;6.32;4.32;;;;;;;23.24;41.16;102416.03;6185405;23;20443;-77
2022/07/16 00:41:18;;;;;;;5.47;3.70;;;;;;;23.24;41.18;102414.03;6185437;23;20004;-79
2022/07/16 00:43:49;;;;;;;6.53;3.42;;;;;;;23.26;41.13;102413.69;6185350;23;20002;-79
2022/07/16 00:46:15;;;;;;;11.00;4.50;;;;;;;23.16;41.14;102401.09;6185316;23;20348;-76
2022/07/16 00:48:42;;;;;;;5.57;3.70;;;;;;;23.08;41.09;102399.28;6185524;23;20328;-81
2022/07/16 00:51:08;;;;;;;5.93;3.60;;;;;;;23.16;40.89;102395.50;6185003;23;20028;-77
2022/07/16 00:53:34;;;;;;;4.82;3.35;;;;;;;23.13;40.90;102393.47;6184934;23;20468;-78
2022/07/16 00:56:00;;;;;;;4.60;3.10;;;;;;;23.04;40.63;102395.59;6158643;23;20380;-77
2022/07/16 00:58:26;;;;;;;4.47;2.80;;;;;;;22.97;40.91;102384.25;6184395;23;20008;-76
2022/07/16 01:00:52;;;;;;;8.15;3.28;;;;;;;22.94;40.55;102399.72;6182066;23;20375;-76
2022/07/16 01:03:18;;;;;;;6.45;3.25;;;;;;;22.87;40.51;102393.94;6184507;23;20009;-77
2022/07/16 01:05:44;;;;;;;6.30;3.97;;;;;;;22.83;40.52;102387.47;6184970;23;20001;-76
2022/07/16 01:08:10;;;;;;;9.75;5.38;;;;;;;22.82;40.90;102383.06;6157790;23;20029;-80
2022/07/16 01:10:36;;;;;;;9.52;4.78;;;;;;;22.70;40.85;102385.91;6185132;23;20439;-76
2022/07/16 01:13:03;;;;;;;5.30;4.32;;;;;;;22.61;41.06;102385.25;6185022;23;20375;-76
2022/07/16 01:15:28;;;;;;;6.65;4.68;;;;;;;22.60;41.29;102386.41;6184233;23;20012;-78
2022/07/16 01:17:54;;;;;;;5.78;4.47;;;;;;;22.71;41.10;102385.53;6185037;23;20009;-78
2022/07/16 01:20:20;;;;;;;11.20;5.65;;;;;;;22.73;41.28;102384.38;6184789;23;20001;-76
2022/07/16 01:22:46;;;;;;;6.75;4.70;;;;;;;22.66;41.30;102380.22;6184264;23;20009;-76
2022/07/16 01:25:12;;;;;;;8.32;5.45;;;;;;;22.64;41.27;102382.56;6158740;23;20325;-76
2022/07/16 01:27:38;;;;;;;5.53;3.70;;;;;;;22.62;41.06;102387.69;6185141;23;20001;-75
2022/07/16 01:30:08;;;;;;;6.43;5.20;;;;;;;22.58;40.89;102391.53;6185118;23;20008;-78
2022/07/16 01:32:35;;;;;;;8.05;4.72;;;;;;;22.57;41.22;102376.78;6184946;23;20028;-77
2022/07/16 01:35:02;;;;;;;8.93;6.53;;;;;;;22.68;40.74;102382.66;6185045;23;20076;-77
2022/07/16 01:37:28;;;;;;;7.80;5.32;;;;;;;22.66;40.91;102391.34;6185032;23;20409;-78
2022/07/16 01:39:53;;;;;;;9.38;5.93;;;;;;;22.61;40.92;102394.41;6184905;23;20005;-76
2022/07/16 01:42:19;;;;;;;8.95;6.25;;;;;;;22.55;41.05;102400.59;6184682;23;20043;-76
2022/07/16 01:44:45;;;;;;;14.30;6.10;;;;;;;22.66;41.08;102396.13;6158543;23;20101;-76
2022/07/16 01:47:10;;;;;;;6.72;5.07;;;;;;;22.61;40.88;102394.41;6184793;23;20028;-76
2022/07/16 01:49:37;;;;;;;10.20;5.30;;;;;;;22.59;40.98;102391.16;6184807;23;20001;-76
2022/07/16 01:52:08;;;;;;;10.38;5.53;;;;;;;22.54;41.23;102394.22;6184723;23;20389;-76
2022/07/16 01:54:34;;;;;;;10.25;5.18;;;;;;;22.48;41.33;102397.59;6184908;23;20005;-76
2022/07/16 01:57:00;;;;;;;6.35;4.53;;;;;;;22.42;41.57;102394.25;6184673;23;20071;-76
2022/07/16 01:59:25;;;;;;;8.85;4.80;;;;;;;22.37;41.60;102394.53;6184730;23;20364;-79
2022/07/16 02:01:51;;;;;;;8.80;5.28;;;;;;;22.35;41.75;102397.63;6184274;23;20020;-76
2022/07/16 02:04:17;;;;;;;9.75;5.90;;;;;;;22.36;41.51;102392.88;6184499;23;20013;-75
2022/07/16 02:06:43;;;;;;;7.68;4.95;;;;;;;22.34;41.59;102395.22;6184164;23;20005;-76
2022/07/16 02:09:08;;;;;;;5.97;4.43;;;;;;;22.25;41.61;102398.16;6184023;23;20036;-76
2022/07/16 02:11:34;;;;;;;11.10;5.45;;;;;;;22.18;41.47;102386.81;6184568;23;20005;-75
2022/07/16 02:14:00;;;;;;;8.85;4.85;;;;;;;22.13;41.26;102379.50;6184507;23;19997;-75
2022/07/16 02:16:25;;;;;;;8.35;4.63;;;;;;;22.09;41.07;102391.72;6184736;23;20005;-76
2022/07/16 02:18:51;;;;;;;7.80;5.15;;;;;;;22.10;41.10;102388.56;6184545;23;20072;-75
2022/07/16 02:21:17;;;;;;;7.68;5.88;;;;;;;22.09;41.20;102389.72;6184524;23;20001;-75
2022/07/16 02:23:42;;;;;;;7.78;5.05;;;;;;;21.96;41.37;102384.50;6184630;23;20005;-76
2022/07/16 02:26:08;;;;;;;8.45;5.35;;;;;;;21.89;41.43;102385.91;6184155;23;20009;-76
2022/07/16 02:28:33;;;;;;;8.38;6.13;;;;;;;21.86;41.58;102380.25;6183342;23;20036;-76
2022/07/16 02:30:59;;;;;;;10.77;7.47;;;;;;;21.84;41.80;102385.34;6184646;23;20001;-75
2022/07/16 02:33:25;;;;;;;10.00;5.07;;;;;;;21.86;41.70;102377.47;6184656;23;20027;-75
2022/07/16 02:35:50;;;;;;;7.93;4.03;;;;;;;21.87;41.32;102374.31;6184708;23;20092;-75
2022/07/16 02:38:16;;;;;;;6.30;4.20;;;;;;;21.75;41.47;102371.56;6184361;23;20001;-76
2022/07/16 02:40:42;;;;;;;6.13;4.72;;;;;;;21.76;41.01;102375.94;6184546;23;20468;-76
2022/07/16 02:43:09;;;;;;;8.60;5.53;;;;;;;21.86;41.03;102374.69;6184438;23;20005;-76
2022/07/16 02:45:37;;;;;;;9.52;5.30;;;;;;;21.81;41.03;102375.72;6184100;23;20012;-76
2022/07/16 02:48:03;;;;;;;20.77;7.80;;;;;;;21.83;41.21;102378.94;6184442;23;20001;-75
2022/07/16 02:50:29;;;;;;;9.68;6.45;;;;;;;21.92;41.33;102383.59;6184553;23;20388;-75
2022/07/16 02:52:56;;;;;;;9.05;6.25;;;;;;;22.04;41.51;102387.16;6184291;23;20368;-75
2022/07/16 02:55:22;;;;;;;9.73;6.78;;;;;;;22.12;41.24;102377.88;6180007;23;20008;-76
2022/07/16 02:57:48;;;;;;;16.23;7.75;;;;;;;22.20;41.48;102375.31;6184273;23;20005;-77
2022/07/16 03:00:15;;;;;;;10.05;7.80;;;;;;;22.28;41.31;102380.72;6184681;23;20332;-76
2022/07/16 03:02:41;;;;;;;8.20;6.05;;;;;;;22.25;41.42;102384.22;6182907;23;20436;-76
2022/07/16 03:05:08;;;;;;;8.65;6.18;;;;;;;22.32;41.48;102378.88;6184260;23;20013;-76
2022/07/16 03:07:34;;;;;;;9.77;6.53;;;;;;;22.29;41.50;102381.53;6184188;23;20028;-75
2022/07/16 03:09:59;;;;;;;9.77;6.70;;;;;;;22.15;41.75;102387.53;6184432;23;20344;-76
2022/07/16 03:12:25;;;;;;;8.77;6.65;;;;;;;22.18;41.84;102380.44;6158141;23;20005;-75
2022/07/16 03:14:51;;;;;;;9.27;6.85;;;;;;;22.17;42.04;102376.03;6159510;23;20099;-75
2022/07/16 03:17:16;;;;;;;8.93;6.70;;;;;;;22.16;41.87;102378.00;6185809;23;20048;-76
2022/07/16 03:19:42;;;;;;;10.38;6.82;;;;;;;22.14;41.75;102375.56;6186165;23;20001;-76
2022/07/16 03:22:08;;;;;;;8.48;6.30;;;;;;;22.11;41.94;102375.44;6186307;23;20116;-76
2022/07/16 03:24:34;;;;;;;13.40;6.60;;;;;;;22.09;41.91;102386.13;6186320;23;20012;-75
2022/07/16 03:27:00;;;;;;;10.75;6.60;;;;;;;21.95;42.13;102380.09;6186122;23;19997;-75
2022/07/16 03:29:27;;;;;;;9.50;6.55;;;;;;;21.86;42.30;102375.50;6159807;23;20009;-75
2022/07/16 03:31:53;;;;;;;13.20;8.43;;;;;;;21.81;42.29;102377.69;6186142;23;20437;-76
2022/07/16 03:34:19;;;;;;;11.27;9.05;;;;;;;21.70;42.50;102371.81;6159493;23;20009;-75
2022/07/16 03:36:45;;;;;;;12.95;8.40;;;;;;;21.72;42.71;102369.47;6186080;23;20087;-75
2022/07/16 03:39:10;;;;;;;13.68;7.80;;;;;;;21.70;43.02;102359.88;6159455;23;20012;-75
2022/07/16 03:41:38;;;;;;;13.35;9.52;;;;;;;21.75;42.88;102359.63;6185452;23;20005;-75
2022/07/16 03:44:06;;;;;;;14.23;7.90;;;;;;;21.76;43.21;102352.88;6186037;23;20029;-75
2022/07/16 03:46:32;;;;;;;16.25;6.70;;;;;;;21.75;42.97;102342.91;6186080;23;20330;-76
2022/07/16 03:48:58;;;;;;;12.10;7.38;;;;;;;21.72;42.71;102340.84;6185876;23;20024;-76
2022/07/16 03:51:24;;;;;;;11.30;7.30;;;;;;;21.69;42.73;102344.31;6186074;23;20001;-75
2022/07/16 03:53:50;;;;;;;15.50;8.50;;;;;;;21.62;42.71;102338.56;6185875;23;20005;-75
2022/07/16 03:56:16;;;;;;;12.60;8.40;;;;;;;21.63;42.71;102340.97;6185761;23;20001;-76
2022/07/16 03:58:42;;;;;;;16.30;7.78;;;;;;;21.62;42.75;102341.34;6185821;23;20008;-79
2022/07/16 04:01:08;;;;;;;15.32;6.90;;;;;;;21.59;42.64;102340.03;6185893;23;20364;-76
2022/07/16 04:03:35;;;;;;;11.55;7.25;;;;;;;21.64;42.35;102339.00;6159073;23;20043;-76
2022/07/16 04:06:01;;;;;;;10.25;7.43;;;;;;;21.66;42.27;102339.47;6185707;23;20080;-75
2022/07/16 04:08:27;;;;;;;16.50;8.82;;;;;;;21.73;42.59;102342.47;6185810;23;20021;-75
2022/07/16 04:10:52;;;;;;;13.27;7.90;;;;;;;21.78;42.50;102345.03;6184895;23;20483;-76
2022/07/16 04:13:18;;;;;;;12.85;9.07;;;;;;;21.79;42.80;102336.31;6185213;23;20337;-76
2022/07/16 04:15:43;;;;;;;10.85;7.82;;;;;;;21.86;42.75;102341.28;6159326;23;20012;-76
2022/07/16 04:18:09;;;;;;;12.07;7.60;;;;;;;21.81;42.88;102333.19;6185730;23;19997;-75
2022/07/16 04:20:36;;;;;;;15.30;8.60;;;;;;;21.77;43.15;102332.28;6185767;23;20068;-75
2022/07/16 04:23:01;;;;;;;14.23;8.00;;;;;;;21.77;43.37;102335.06;6185476;23;19997;-75
2022/07/16 04:25:27;;;;;;;11.80;6.93;;;;;;;21.86;43.50;102338.50;6184683;23;20028;-76
2022/07/16 04:27:53;;;;;;;12.95;6.45;;;;;;;21.87;43.40;102332.59;6185368;23;20011;-75
2022/07/16 04:30:19;;;;;;;10.05;6.75;;;;;;;21.88;43.60;102339.75;6185447;23;20005;-76
2022/07/16 04:32:44;;;;;;;11.43;7.30;;;;;;;21.97;43.63;102339.63;6185458;23;20008;-76
2022/07/16 04:35:12;;;;;;;12.20;6.38;;;;;;;21.99;43.76;102342.88;6185523;23;20005;-76
2022/07/16 04:37:38;;;;;;;11.02;6.85;;;;;;;22.06;43.82;102345.84;6185348;23;20491;-75
2022/07/16 04:40:05;;;;;;;9.15;7.03;;;;;;;22.10;43.81;102332.88;6185583;23;20546;-75
2022/07/16 04:42:31;;;;;;;13.85;6.93;;;;;;;22.18;43.57;102347.03;6185488;23;20004;-75
2022/07/16 04:44:56;;;;;;;9.43;6.95;;;;;;;22.21;43.92;102340.72;6185374;23;20005;-76
2022/07/16 04:47:22;;;;;;;11.75;6.82;;;;;;;22.21;43.99;102346.31;6185104;23;20080;-76
2022/07/16 04:49:48;;;;;;;9.63;6.22;;;;;;;22.25;44.07;102353.59;6185573;23;20420;-75
2022/07/16 04:52:14;;;;;;;10.10;6.20;;;;;;;22.32;44.00;102347.44;6185225;23;20008;-75
2022/07/16 04:54:39;;;;;;;9.70;6.75;;;;;;;22.38;43.84;102341.25;6185367;23;20332;-75
2022/07/16 04:57:05;;;;;;;8.07;6.20;;;;;;;22.35;44.27;102330.81;6185208;23;20001;-75
2022/07/16 04:59:31;;;;;;;13.20;6.07;;;;;;;22.40;44.29;102338.09;6159033;23;20501;-78
2022/07/16 05:02:56;;;;;;;9.82;5.55;;;;;;;22.50;44.05;102345.94;6158606;23;20036;-76
2022/07/16 05:04:42;;;;;;;16.42;6.13;;;;;;;22.54;44.10;102341.28;6184310;23;20067;-75
2022/07/16 05:07:08;;;;;;;16.42;6.85;;;;;;;22.49;44.37;102346.31;6185241;23;20302;-76
2022/07/16 05:09:34;;;;;;;14.02;6.63;;;;;;;22.58;44.13;102356.09;6185391;23;20479;-75
2022/07/16 05:11:59;;;;;;;17.80;5.80;;;;;;;22.71;44.08;102346.53;6185183;23;20214;-75
2022/07/16 05:14:25;;;;;;;9.80;5.75;;;;;;;22.87;43.40;102351.34;6185208;23;20061;-75
2022/07/16 05:16:51;;;;;;;10.85;4.82;;;;;;;22.84;43.98;102352.84;6185336;23;20012;-75
2022/07/16 05:19:17;;;;;;;10.65;5.35;;;;;;;22.90;44.07;102353.44;6185175;23;20001;-75
2022/07/16 05:21:43;;;;;;;11.80;5.57;;;;;;;23.00;43.91;102358.47;6185132;23;20005;-76
2022/07/16 05:24:08;;;;;;;14.10;6.28;;;;;;;23.00;44.29;102352.88;6184900;23;20458;-75
2022/07/16 05:26:34;;;;;;;9.30;4.93;;;;;;;23.13;44.22;102357.22;6184962;23;20008;-75
2022/07/16 05:28:59;;;;;;;7.45;4.07;;;;;;;23.20;44.30;102360.19;6185286;23;20424;-75
2022/07/16 05:31:25;;;;;;;8.70;4.05;;;;;;;23.28;44.14;102357.56;6185069;23;20001;-76
2022/07/16 05:33:51;;;;;;;7.32;4.60;;;;;;;23.36;44.02;102360.16;6185083;23;20324;-78
2022/07/16 05:36:18;;;;;;;10.80;4.63;;;;;;;23.36;44.57;102354.59;6158636;23;20005;-75
2022/07/16 05:38:44;;;;;;;8.65;4.20;;;;;;;23.44;44.24;102352.78;6185123;23;20068;-75
2022/07/16 05:41:09;;;;;;;9.15;4.65;;;;;;;23.51;44.19;102361.31;6184887;23;20491;-75
2022/07/16 05:43:35;;;;;;;7.55;3.92;;;;;;;23.52;44.51;102352.56;6185025;23;19993;-75
2022/07/16 05:46:01;;;;;;;6.43;3.95;;;;;;;23.59;44.40;102353.91;6184659;23;20087;-78
2022/07/16 05:48:27;;;;;;;8.65;4.50;;;;;;;23.69;44.17;102348.59;6183657;23;20336;-76
2022/07/16 05:50:52;;;;;;;7.72;3.15;;;;;;;23.80;43.99;102351.63;6184611;23;20001;-75
2022/07/16 05:53:18;;;;;;;7.10;3.72;;;;;;;23.93;44.10;102355.09;6184716;23;20032;-75
2022/07/16 05:55:43;;;;;;;9.82;3.85;;;;;;;23.96;44.48;102357.19;6184665;23;20088;-76
2022/07/16 05:58:09;;;;;;;8.02;3.75;;;;;;;24.00;44.40;102356.06;6184698;23;20020;-75
2022/07/16 06:00:35;;;;;;;5.88;3.47;;;;;;;24.17;44.03;102351.22;6183836;23;20036;-76
2022/07/16 06:03:00;;;;;;;7.88;3.15;;;;;;;24.34;44.04;102351.63;6184323;23;20016;-76
2022/07/16 06:05:26;;;;;;;7.75;3.85;;;;;;;24.51;43.94;102350.34;6184117;23;20447;-75
2022/07/16 06:07:52;;;;;;;6.38;2.75;;;;;;;24.62;43.96;102350.53;6184732;23;20000;-75
2022/07/16 06:10:19;;;;;;;7.05;4.25;;;;;;;24.67;43.81;102350.25;6184606;23;20001;-76
2022/07/16 06:12:44;;;;;;;5.38;3.25;;;;;;;24.74;44.01;102347.59;6158208;23;20038;-78
2022/07/16 06:15:11;;;;;;;5.75;2.88;;;;;;;24.75;44.19;102356.78;6184169;23;20443;-76
2022/07/16 06:17:37;;;;;;;6.00;3.33;;;;;;;24.83;44.09;102350.13;6183133;23;20005;-80
2022/07/16 06:20:04;;;;;;;11.23;4.18;;;;;;;24.82;44.08;102360.50;6184821;23;20076;-77
2022/07/16 06:22:30;;;;;;;9.43;3.42;;;;;;;24.97;43.93;102355.97;6158067;23;20013;-78
2022/07/16 06:24:56;;;;;;;8.25;3.28;;;;;;;25.07;43.98;102351.78;6184308;23;20335;-80
2022/07/16 06:27:21;;;;;;;6.28;3.13;;;;;;;25.10;43.97;102354.66;6184490;23;20005;-76
2022/07/16 06:29:47;;;;;;;10.00;3.50;;;;;;;25.30;43.71;102358.16;6184182;23;20004;-79
2022/07/16 06:32:13;;;;;;;9.45;4.35;;;;;;;25.37;43.39;102363.88;6184748;23;20012;-80
2022/07/16 06:34:38;;;;;;;5.85;2.92;;;;;;;25.53;43.44;102360.09;6184551;23;20012;-77
2022/07/16 06:37:04;;;;;;;6.40;2.78;;;;;;;25.60;43.32;102357.41;6158250;23;20088;-76
2022/07/16 06:39:30;;;;;;;6.88;3.83;;;;;;;25.62;43.19;102369.06;6184546;23;20048;-76
2022/07/16 06:41:56;;;;;;;10.48;3.83;;;;;;;25.55;42.85;102366.97;6184669;23;20078;-76
2022/07/16 06:44:22;;;;;;;6.25;3.22;;;;;;;25.54;43.06;102365.31;6184545;23;20001;-76
2022/07/16 06:46:48;;;;;;;6.28;3.70;;;;;;;25.70;42.80;102373.56;6184360;23;20005;-75
2022/07/16 06:49:14;;;;;;;8.52;4.70;;;;;;;25.73;42.59;102370.84;6185463;23;20037;-75
2022/07/16 06:51:40;;;;;;;9.52;3.90;;;;;;;25.78;42.69;102366.91;6186463;23;20332;-76
2022/07/16 06:54:06;;;;;;;8.25;4.68;;;;;;;25.74;42.38;102371.66;6186453;23;20429;-78
2022/07/16 06:56:32;;;;;;;9.82;3.92;;;;;;;25.77;42.46;102376.50;6186504;23;20432;-77
2022/07/16 06:58:57;;;;;;;5.15;3.58;;;;;;;25.88;42.11;102383.06;6186299;23;20047;-76
2022/07/16 07:01:23;;;;;;;7.13;4.15;;;;;;;25.87;42.40;102381.44;6186451;23;20008;-77
2022/07/16 07:03:50;;;;;;;5.47;3.55;;;;;;;25.98;42.40;102388.00;6186159;23;20344;-76
2022/07/16 07:06:15;;;;;;;6.20;3.65;;;;;;;26.08;42.09;102383.75;6186267;23;20218;-76
2022/07/16 07:08:41;;;;;;;11.98;5.28;;;;;;;26.08;42.28;102380.94;6186356;23;20029;-79
2022/07/16 07:11:07;;;;;;;7.75;3.67;;;;;;;26.16;42.08;102381.84;6186246;23;20012;-76
2022/07/16 07:13:33;;;;;;;8.48;4.35;;;;;;;26.14;42.32;102379.38;6186373;23;20376;-76
2022/07/16 07:15:59;;;;;;;6.53;4.47;;;;;;;26.33;41.71;102381.25;6186308;23;20084;-76
2022/07/16 07:18:25;;;;;;;6.07;3.97;;;;;;;26.46;41.38;102379.03;6185901;23;20005;-76
2022/07/16 07:20:51;;;;;;;6.28;4.13;;;;;;;26.49;41.65;102376.25;6186284;23;20001;-76
2022/07/16 07:23:17;;;;;;;6.35;4.35;;;;;;;26.53;41.52;102377.09;6185252;23;20011;-79
2022/07/16 07:25:42;;;;;;;7.30;4.03;;;;;;;26.56;41.36;102375.53;6184445;23;20011;-75
2022/07/16 07:28:08;;;;;;;6.00;4.18;;;;;;;26.57;41.44;102376.34;6186226;23;20309;-75
2022/07/16 07:30:34;;;;;;;8.25;4.53;;;;;;;26.50;41.87;102377.84;6186105;23;20028;-78
2022/07/16 07:33:00;;;;;;;5.95;4.00;;;;;;;26.59;41.85;102380.34;6159860;23;20033;-76
2022/07/16 07:35:26;;;;;;;8.70;4.22;;;;;;;26.70;41.79;102380.50;6159762;23;20009;-76
2022/07/16 07:37:52;;;;;;;10.27;5.38;;;;;;;26.61;41.95;102372.38;6185892;23;20047;-76
2022/07/16 07:40:18;;;;;;;6.97;4.18;;;;;;;26.73;41.59;102376.91;6185755;23;20001;-76
2022/07/16 07:42:44;;;;;;;8.13;4.65;;;;;;;26.83;41.32;102370.63;6186071;23;20072;-76
2022/07/16 07:45:10;;;;;;;9.85;5.32;;;;;;;26.70;41.91;102375.69;6186014;23;20091;-76
2022/07/16 07:47:37;;;;;;;8.32;4.57;;;;;;;26.83;41.56;102371.41;6183216;23;20015;-76
2022/07/16 07:50:06;;;;;;;7.40;4.15;;;;;;;26.90;41.59;102381.06;6176784;23;20008;-76
2022/07/16 07:52:32;;;;;;;11.38;4.43;;;;;;;26.90;41.41;102375.47;6177532;23;20036;-76
2022/07/16 07:54:58;;;;;;;6.30;4.85;;;;;;;27.00;41.47;102378.38;6173973;23;20487;-76
2022/07/16 07:57:24;;;;;;;8.23;4.30;;;;;;;26.93;41.59;102374.69;6174773;23;20076;-76
2022/07/16 07:59:50;;;;;;;7.93;4.63;;;;;;;27.08;41.55;102384.91;6174303;23;20137;-76
2022/07/16 08:02:15;;;;;;;7.22;3.88;;;;;;;27.03;41.60;102390.81;6172599;23;20024;-77
2022/07/16 08:04:41;;;;;;;7.03;4.38;;;;;;;27.07;41.55;102391.69;6174749;23;20005;-76
2022/07/16 08:07:07;;;;;;;5.22;3.67;;;;;;;27.01;41.62;102393.22;6176140;23;20000;-76
2022/07/16 08:09:32;;;;;;;5.57;4.70;;;;;;;27.08;41.69;102390.50;6176875;23;20001;-76
2022/07/16 08:11:58;;;;;;;6.20;3.92;;;;;;;27.15;41.62;102392.56;6174847;23;20063;-76
2022/07/16 08:14:24;;;;;;;7.25;4.53;;;;;;;27.10;41.49;102393.72;6185605;23;20013;-75
2022/07/16 08:16:50;;;;;;;5.63;3.95;;;;;;;27.25;41.17;102389.03;6185799;23;20005;-76
2022/07/16 08:19:15;;;;;;;6.68;3.78;;;;;;;27.38;40.92;102399.56;6185763;23;20052;-76
2022/07/16 08:21:41;;;;;;;6.30;3.80;;;;;;;27.44;41.02;102388.81;6184066;23;20314;-75
2022/07/16 08:26:51;;;;;;;7.47;4.10;;;;;;;27.70;40.23;102387.78;6185025;23;20016;-77
2022/07/16 08:29:17;;;;;;;7.53;3.72;;;;;;;27.73;40.10;102400.25;6185310;23;20005;-77
2022/07/16 08:31:42;;;;;;;5.78;3.47;;;;;;;27.75;40.07;102387.44;6159072;23;20052;-77
2022/07/16 08:34:08;;;;;;;5.80;3.47;;;;;;;27.72;40.12;102393.00;6185362;23;20012;-78
2022/07/16 08:36:33;;;;;;;5.72;3.65;;;;;;;27.69;40.30;102399.44;6184762;23;20028;-77
2022/07/16 08:38:59;;;;;;;5.93;3.55;;;;;;;27.46;40.55;102392.03;6184922;23;20005;-77
2022/07/16 08:41:25;;;;;;;6.25;3.40;;;;;;;27.30;40.88;102383.88;6185552;23;20001;-76
2022/07/16 08:43:51;;;;;;;7.07;3.83;;;;;;;27.48;40.46;102386.81;6185387;23;20001;-77
2022/07/16 08:46:20;;;;;;;4.82;3.40;;;;;;;27.51;40.46;102388.84;6185269;23;20005;-77
2022/07/16 08:48:46;;;;;;;6.18;3.33;;;;;;;27.49;40.58;102393.22;6158988;23;20512;-78
2022/07/16 08:51:12;;;;;;;6.88;3.33;;;;;;;27.33;41.13;102396.31;6185383;23;20011;-76
2022/07/16 08:53:40;;;;;;;4.85;3.75;;;;;;;27.49;40.62;102394.03;6185217;23;20024;-76
2022/07/16 08:56:06;;;;;;;6.03;3.38;;;;;;;27.51;40.63;102391.66;6185111;23;20375;-76
2022/07/16 08:58:32;;;;;;;7.63;4.10;;;;;;;27.67;40.63;102391.41;6185220;23;20380;-76
2022/07/16 09:00:59;;;;;;;5.45;3.63;;;;;;;27.69;40.42;102388.19;6183472;23;20028;-76
2022/07/16 09:03:25;;;;;;;6.25;3.25;;;;;;;27.64;40.46;102392.13;6184991;23;20017;-77
2022/07/16 09:05:51;;;;;;;8.52;3.22;;;;;;;27.75;40.47;102386.63;6179977;23;20088;-76
2022/07/16 09:08:17;;;;;;;4.93;3.17;;;;;;;27.59;40.57;102398.13;6175723;23;20076;-76
2022/07/16 09:10:43;;;;;;;5.43;3.53;;;;;;;27.34;41.01;102395.94;6174609;23;20012;-76
2022/07/16 09:13:10;;;;;;;7.93;3.55;;;;;;;27.61;40.70;102393.72;6174409;23;20071;-76
2022/07/16 09:15:38;;;;;;;6.38;3.53;;;;;;;27.60;40.62;102394.13;6183519;23;20005;-76
2022/07/16 09:18:22;;;;;;;6.28;3.15;;;;;;;27.80;39.94;102400.28;6158869;23;20448;-79
2022/07/16 09:20:57;;;;;;;3.88;2.97;;;;;;;27.62;40.17;102395.34;6185023;23;20032;-79
2022/07/16 09:23:33;;;;;;;9.07;4.15;;;;;;;27.64;40.12;102395.75;6185112;23;20001;-79
2022/07/16 09:26:04;;;;;;;7.47;3.25;;;;;;;27.58;40.24;102394.53;6185031;23;20332;-79
2022/07/16 09:28:43;;;;;;;5.53;3.55;;;;;;;27.69;40.17;102405.84;6185291;23;20001;-79
2022/07/16 09:31:29;;;;;;;7.43;3.45;;;;;;;28.08;39.38;102394.03;6184869;23;20009;-80
2022/07/16 09:34:14;;;;;;;5.78;3.13;;;;;;;27.93;39.64;102393.16;6184510;23;20001;-79
2022/07/16 09:36:55;;;;;;;10.13;4.05;;;;;;;27.98;39.71;102389.97;6173275;23;20017;-80
2022/07/16 09:39:21;;;;;;;8.85;4.05;;;;;;;27.86;39.92;102395.91;6172113;23;20060;-80
2022/07/16 09:41:47;;;;;;;4.63;3.55;;;;;;;27.94;39.85;102389.13;6172572;23;20005;-79
2022/07/16 09:44:17;;;;;;;7.60;4.25;;;;;;;28.10;39.79;102395.22;6174323;23;20015;-79
2022/07/16 09:47:07;;;;;;;6.97;3.20;;;;;;;27.99;40.05;102388.78;6147065;23;20004;-79
2022/07/16 09:49:38;;;;;;;8.03;3.50;;;;;;;28.19;39.52;102390.06;6170264;23;20009;-80
2022/07/16 09:52:05;;;;;;;6.65;4.30;;;;;;;28.21;39.69;102372.81;6171557;23;20005;-80
2022/07/16 09:54:33;;;;;;;6.82;3.40;;;;;;;28.16;39.72;102374.00;6172201;23;20097;-79
2022/07/16 09:57:15;;;;;;;8.73;4.22;;;;;;;28.28;39.92;102386.09;6172727;23;20013;-80
2022/07/16 09:59:43;;;;;;;5.38;3.90;;;;;;;28.14;39.80;102386.84;6174581;23;20039;-79
2022/07/16 10:02:09;;;;;;;6.05;3.83;;;;;;;28.11;39.67;102390.41;6175487;23;20085;-79
2022/07/16 10:04:35;;;;;;;11.45;5.20;;;;;;;28.02;40.08;102384.34;6183158;23;20068;-80
2022/07/16 10:07:00;;;;;;;7.45;4.28;;;;;;;28.06;39.63;102383.19;6183203;23;20661;-80
2022/07/16 10:09:26;;;;;;;10.52;4.57;;;;;;;28.05;39.89;102375.97;6183659;23;20008;-80
2022/07/16 10:11:54;;;;;;;8.30;4.90;;;;;;;28.15;39.79;102389.25;6152015;23;20005;-80
2022/07/16 10:14:21;;;;;;;6.47;4.40;;;;;;;28.16;39.85;102396.47;6174089;23;20439;-80
2022/07/16 10:16:47;;;;;;;5.13;3.60;;;;;;;28.18;39.80;102382.81;6174392;23;20009;-80
2022/07/16 10:19:14;;;;;;;5.60;4.10;;;;;;;28.17;39.64;102395.28;6174642;23;20008;-79
2022/07/16 10:21:41;;;;;;;9.25;5.05;;;;;;;28.37;39.48;102392.19;6180987;23;20515;-81
2022/07/16 10:24:09;;;;;;;6.60;3.70;;;;;;;28.59;39.43;102387.44;6184246;23;20048;-79
2022/07/16 10:26:35;;;;;;;7.15;3.65;;;;;;;28.64;39.34;102403.88;6157363;23;20016;-80
2022/07/16 10:29:02;;;;;;;8.27;4.20;;;;;;;28.70;39.10;102400.28;6184318;23;20035;-80
2022/07/16 10:31:34;;;;;;;8.93;3.28;;;;;;;28.79;39.28;102399.09;6157982;23;20005;-79
2022/07/16 10:34:15;;;;;;;10.80;4.78;;;;;;;28.66;39.33;102395.88;6183871;23;20009;-79
2022/07/16 10:36:50;;;;;;;8.07;4.43;;;;;;;28.69;39.06;102389.44;6175335;23;20067;-80
2022/07/16 10:39:17;;;;;;;8.93;4.90;;;;;;;28.86;38.97;102405.53;6175177;23;20012;-79
2022/07/16 10:41:51;;;;;;;7.13;4.57;;;;;;;28.87;38.61;102403.53;6172419;23;20140;-79
2022/07/16 10:44:17;;;;;;;6.25;4.40;;;;;;;29.09;38.72;102408.03;6171735;23;20005;-79
2022/07/16 10:46:56;;;;;;;9.50;4.90;;;;;;;28.88;39.02;102399.53;6173381;23;20341;-79
2022/07/16 10:49:23;;;;;;;6.85;4.53;;;;;;;29.05;38.05;102400.78;6147240;23;20508;-80
2022/07/16 10:52:05;;;;;;;6.00;3.97;;;;;;;29.12;38.30;102398.00;6147163;23;20001;-79
2022/07/16 10:54:38;;;;;;;10.38;4.75;;;;;;;29.25;38.05;102385.94;6172740;23;20051;-80
2022/07/16 10:57:08;;;;;;;6.10;4.60;;;;;;;29.35;38.22;102389.13;6174491;23;20075;-80
2022/07/16 10:59:37;;;;;;;5.20;4.28;;;;;;;29.32;38.04;102387.13;6171570;23;20009;-80
2022/07/16 11:02:05;;;;;;;7.43;5.22;;;;;;;29.35;38.03;102386.31;6173488;23;20001;-78
2022/07/16 11:04:37;;;;;;;9.50;4.78;;;;;;;29.25;38.08;102379.50;6174218;23;20028;-79
2022/07/16 11:07:21;;;;;;;5.80;5.18;;;;;;;28.97;38.40;102386.72;6174190;23;20012;-79
2022/07/16 11:09:48;;;;;;;6.40;4.68;;;;;;;29.13;38.18;102377.88;6175158;23;20001;-80
2022/07/16 11:12:21;;;;;;;5.90;3.55;;;;;;;29.28;38.29;102382.28;6145765;23;20017;-80
2022/07/16 11:14:49;;;;;;;5.80;3.83;;;;;;;29.23;38.00;102384.72;6170525;23;20004;-80
2022/07/16 11:17:17;;;;;;;21.27;6.25;;;;;;;29.31;38.38;102386.31;6172895;23;20032;-80
2022/07/16 11:19:48;;;;;;;6.75;4.22;;;;;;;29.44;37.66;102389.53;6174067;23;20032;-81
2022/07/16 11:22:17;;;;;;;5.82;4.50;;;;;;;29.16;38.45;102395.97;6173119;23;20065;-81
2022/07/16 11:24:46;;;;;;;5.93;5.00;;;;;;;28.85;38.88;102394.69;6174889;23;20082;-81
2022/07/16 11:27:12;;;;;;;8.82;4.93;;;;;;;29.37;38.45;102381.88;6173896;23;20314;-80